Kiawah Island, South Carolina
Current Conditions -  °F | °C
As of 7:15 PM on Wednesday 22 Oct 2014 (Local Time) from KJZI Reporting Station
Clear Clear  
Wind Chill: 59°   Ceiling: Unl
Heat Index: 59°   Visibility: 10mi
Dew Point: 46°   Wind: 0mph
Humidity: 63%   Direction: NA
Pressure: 30.03"   Gusts: NA
Location:  32.6897°N, 80.0874°W
Report Text: KJZI 222315Z AUTO 00000KT 10SM CLR 15/08 A3003 RMK A02 P000
Loading
Personal Weather Stations






























Interactive Weather Map
Tropical Storm Tracking
New forecast layout! Learn more

10-Day Weather Forecast

Advertisements
Track Severe Weather on mobile